Time;durP1;ratioP1;P1;durP2;ratioP2;P2;SDS_P1;SDS_P2;PMS_P1;PMS_P2;Temp;Humidity;BMP_temperature;BMP_pressure;BME280_temperature;BME280_humidity;BME280_pressure;Samples;Min_cycle;Max_cycle;Signal;HPM_P1;HPM_P2
2022/07/11 00:00:47;;;;;;;9.45;3.10;;;22.10;99.90;;;;;;4937039;29;20386;-72
2022/07/11 00:03:13;;;;;;;8.25;3.97;;;22.10;99.90;;;;;;4937085;29;20510;-73
2022/07/11 00:05:42;;;;;;;10.43;4.60;;;22.10;99.90;;;;;;4936664;29;20063;-74
2022/07/11 00:08:09;;;;;;;10.50;5.57;;;22.00;99.90;;;;;;4936573;29;20035;-73
2022/07/11 00:10:36;;;;;;;14.07;5.68;;;22.00;99.90;;;;;;4919698;29;20106;-72
2022/07/11 00:13:02;;;;;;;8.50;4.40;;;22.00;99.90;;;;;;4936572;29;20046;-72
2022/07/11 00:15:28;;;;;;;13.30;4.25;;;22.00;99.90;;;;;;4936595;29;20035;-72
2022/07/11 00:17:54;;;;;;;7.95;3.50;;;22.00;99.90;;;;;;4936444;29;20114;-72
2022/07/11 00:20:20;;;;;;;15.70;3.75;;;21.90;99.90;;;;;;4936620;29;20019;-72
2022/07/11 00:22:46;;;;;;;13.35;3.30;;;21.90;99.90;;;;;;4919470;29;20095;-72
2022/07/11 00:25:12;;;;;;;7.70;2.50;;;21.90;99.90;;;;;;4936329;29;20103;-72
2022/07/11 00:27:38;;;;;;;12.45;3.67;;;21.80;99.90;;;;;;4936139;29;20027;-72
2022/07/11 00:30:05;;;;;;;7.32;2.90;;;21.80;99.90;;;;;;4936691;29;20039;-72
2022/07/11 00:32:31;;;;;;;7.68;2.35;;;21.80;99.90;;;;;;4936624;29;20038;-72
2022/07/11 00:34:57;;;;;;;11.43;2.88;;;21.70;99.90;;;;;;4936406;29;20114;-72
2022/07/11 00:37:28;;;;;;;11.02;2.85;;;21.70;99.90;;;;;;4936572;29;20162;-73
2022/07/11 00:42:30;;;;;;;5.18;2.67;;;21.70;99.90;;;;;;5605112;23;20385;-93
2022/07/11 00:44:58;;;;;;;10.13;2.92;;;21.60;99.90;;;;;;4962256;28;20027;-94
2022/07/11 00:47:24;;;;;;;12.82;2.78;;;21.60;99.90;;;;;;4962471;28;20482;-94
2022/07/11 00:49:52;;;;;;;6.22;2.30;;;21.60;99.90;;;;;;4962894;28;20062;-93
2022/07/11 00:52:22;;;;;;;7.47;2.50;;;21.50;99.90;;;;;;4959082;28;20121;-92
2022/07/11 00:54:49;;;;;;;8.18;3.08;;;21.40;99.90;;;;;;4959783;28;20472;-92
2022/07/11 00:57:16;;;;;;;11.07;3.97;;;21.40;99.90;;;;;;4958269;28;20077;-93
2022/07/11 00:59:42;;;;;;;15.23;4.93;;;21.30;99.90;;;;;;4958459;28;20090;-93
2022/07/11 01:02:09;;;;;;;11.25;5.05;;;21.40;99.90;;;;;;4942264;28;20114;-94
2022/07/11 01:04:36;;;;;;;13.10;5.43;;;21.30;99.90;;;;;;4958086;28;20041;-95
2022/07/11 01:07:03;;;;;;;12.93;5.35;;;21.20;99.90;;;;;;4958090;28;20023;-94
2022/07/11 01:09:31;;;;;;;11.50;5.70;;;21.20;99.90;;;;;;4958127;28;20515;-94
2022/07/11 01:11:58;;;;;;;12.77;5.38;;;21.20;99.90;;;;;;4958185;28;20555;-93
2022/07/11 01:14:25;;;;;;;15.75;6.03;;;21.20;99.90;;;;;;4958125;28;20038;-94
2022/07/11 01:16:52;;;;;;;19.08;5.30;;;21.20;99.90;;;;;;4958350;28;20142;-95
2022/07/11 01:19:18;;;;;;;10.63;4.75;;;21.10;99.90;;;;;;4958104;28;20062;-93
2022/07/11 01:21:50;;;;;;;9.82;4.60;;;21.10;99.90;;;;;;4944480;28;20026;-94
2022/07/11 01:24:16;;;;;;;11.80;3.80;;;21.10;99.90;;;;;;4958517;28;20058;-93
2022/07/11 01:26:44;;;;;;;8.80;4.15;;;21.00;99.90;;;;;;4958032;28;20384;-94
2022/07/11 01:29:14;;;;;;;12.38;4.00;;;21.10;99.90;;;;;;4958355;28;20038;-93
2022/07/11 01:31:42;;;;;;;10.25;4.03;;;21.00;99.90;;;;;;4958104;28;20419;-94
2022/07/11 01:34:12;;;;;;;9.02;3.83;;;21.00;99.90;;;;;;4957941;28;20023;-94
2022/07/11 01:36:39;;;;;;;8.10;3.88;;;21.00;99.90;;;;;;4957966;28;20077;-93
2022/07/11 01:39:06;;;;;;;13.27;4.13;;;21.00;99.90;;;;;;4958065;28;20023;-95
2022/07/11 01:41:32;;;;;;;9.70;4.15;;;21.00;99.90;;;;;;4961014;28;20129;-93
2022/07/11 01:44:02;;;;;;;9.95;4.60;;;20.90;99.90;;;;;;4945557;28;20035;-95
2022/07/11 01:46:28;;;;;;;12.80;4.65;;;20.90;99.90;;;;;;4961488;28;20030;-94
2022/07/11 01:48:55;;;;;;;10.43;4.18;;;20.90;99.90;;;;;;4945672;28;20023;-93
2022/07/11 01:51:23;;;;;;;7.75;4.00;;;20.90;99.90;;;;;;4961400;28;20043;-94
2022/07/11 01:53:50;;;;;;;11.82;4.45;;;20.90;99.90;;;;;;4961514;28;20031;-93
2022/07/11 01:56:16;;;;;;;13.13;4.28;;;20.80;99.90;;;;;;4961253;28;20507;-95
2022/07/11 01:58:43;;;;;;;14.48;4.60;;;20.80;99.90;;;;;;4945809;28;20054;-94
2022/07/11 02:01:09;;;;;;;8.93;4.20;;;20.80;99.90;;;;;;4961166;28;20114;-95
2022/07/11 02:03:37;;;;;;;14.13;4.28;;;20.80;99.90;;;;;;4962681;28;20058;-93
2022/07/11 02:06:04;;;;;;;14.48;4.35;;;20.80;99.90;;;;;;4972938;28;20042;-93
2022/07/11 02:08:30;;;;;;;8.95;3.80;;;20.80;99.90;;;;;;4964938;28;20031;-94
2022/07/11 02:10:57;;;;;;;11.95;4.20;;;20.80;99.90;;;;;;4961714;28;20166;-94
2022/07/11 02:13:23;;;;;;;9.05;4.20;;;20.90;99.90;;;;;;4942274;28;20113;-93
2022/07/11 02:15:53;;;;;;;13.07;3.70;;;20.80;99.90;;;;;;4961714;28;20027;-94
2022/07/11 02:18:20;;;;;;;10.27;3.67;;;20.90;99.90;;;;;;4945133;28;20023;-93
2022/07/11 02:20:50;;;;;;;12.00;3.92;;;20.90;99.90;;;;;;4961159;28;20023;-94
2022/07/11 02:23:18;;;;;;;9.23;3.50;;;20.90;99.90;;;;;;4961050;28;20035;-95
2022/07/11 02:25:45;;;;;;;10.52;4.00;;;20.90;99.90;;;;;;4945114;28;20034;-93
2022/07/11 02:28:12;;;;;;;13.75;3.67;;;20.90;99.90;;;;;;4962985;28;20125;-93
2022/07/11 02:30:42;;;;;;;13.48;3.30;;;20.90;99.90;;;;;;4961306;28;20022;-93
2022/07/11 02:33:16;;;;;;;8.82;3.30;;;20.90;99.90;;;;;;4960661;28;20499;-93
2022/07/11 02:35:44;;;;;;;6.95;3.35;;;20.90;99.90;;;;;;4960787;28;20027;-93
2022/07/11 02:38:10;;;;;;;11.15;2.97;;;21.00;99.90;;;;;;4960663;28;20031;-93
2022/07/11 02:40:37;;;;;;;7.88;4.07;;;21.00;99.90;;;;;;4960436;28;20058;-93
2022/07/11 02:43:03;;;;;;;13.70;3.53;;;20.90;99.90;;;;;;4960716;28;20089;-92
2022/07/11 02:45:30;;;;;;;10.23;3.20;;;20.90;99.90;;;;;;4960408;28;20126;-94
2022/07/11 02:47:57;;;;;;;7.35;3.40;;;20.90;99.90;;;;;;4960432;28;20070;-92
2022/07/11 02:50:23;;;;;;;14.18;3.50;;;20.80;99.90;;;;;;4959907;28;20031;-95
2022/07/11 02:52:50;;;;;;;9.38;3.42;;;20.80;99.90;;;;;;4960360;28;20077;-93
2022/07/11 02:55:16;;;;;;;7.93;3.33;;;20.80;99.90;;;;;;4960579;28;20037;-94
2022/07/11 02:57:43;;;;;;;10.73;3.90;;;20.80;99.90;;;;;;4960901;28;20031;-94
2022/07/11 03:00:16;;;;;;;9.27;2.83;;;20.70;99.90;;;;;;4960179;28;20074;-94
2022/07/11 03:02:43;;;;;;;9.30;3.30;;;20.70;99.90;;;;;;4960050;28;20457;-94
2022/07/11 03:05:10;;;;;;;11.27;2.90;;;20.70;99.90;;;;;;4960123;28;20034;-94
2022/07/11 03:07:36;;;;;;;11.40;3.70;;;20.70;99.90;;;;;;4963064;28;20031;-94
2022/07/11 03:10:03;;;;;;;11.45;3.15;;;20.60;99.90;;;;;;4962811;28;20061;-93
2022/07/11 03:12:30;;;;;;;6.65;3.10;;;20.60;99.90;;;;;;4963496;28;20050;-95
2022/07/11 03:15:00;;;;;;;15.73;3.53;;;20.50;99.90;;;;;;4960464;28;20030;-93
2022/07/11 03:17:27;;;;;;;10.48;3.25;;;20.60;99.90;;;;;;4961037;28;20035;-93
2022/07/11 03:19:53;;;;;;;10.00;3.50;;;20.60;99.90;;;;;;4960016;28;20034;-93
2022/07/11 03:22:20;;;;;;;8.15;3.10;;;20.60;99.90;;;;;;4959625;28;20033;-94
2022/07/11 03:24:53;;;;;;;12.82;3.20;;;20.60;99.90;;;;;;4961219;28;20022;-94
2022/07/11 03:27:20;;;;;;;8.48;3.30;;;20.60;99.90;;;;;;4942000;28;20110;-93
2022/07/11 03:29:47;;;;;;;12.75;3.40;;;20.60;99.90;;;;;;4970556;28;20439;-94
2022/07/11 03:32:14;;;;;;;14.13;3.42;;;20.60;99.90;;;;;;4969618;28;20039;-93
2022/07/11 03:35:40;;;;;;;9.95;3.72;;;20.60;99.90;;;;;;4966347;28;20147;-94
2022/07/11 03:37:31;;;;;;;10.73;3.05;;;20.70;99.90;;;;;;4966207;28;20035;-94
2022/07/11 03:39:58;;;;;;;10.95;3.33;;;20.70;99.90;;;;;;4966572;28;20026;-96
2022/07/11 03:42:28;;;;;;;11.13;3.42;;;20.70;99.90;;;;;;4963449;28;20055;-94
2022/07/11 03:44:54;;;;;;;10.88;3.67;;;20.70;99.90;;;;;;4957957;29;20035;-93
2022/07/11 03:47:21;;;;;;;11.38;3.20;;;20.70;99.90;;;;;;4957397;29;20095;-92
2022/07/11 03:49:47;;;;;;;8.80;3.75;;;20.80;99.90;;;;;;4956769;29;20031;-92
2022/07/11 03:52:14;;;;;;;10.82;3.80;;;20.80;99.90;;;;;;4959115;29;20039;-93
2022/07/11 03:54:41;;;;;;;13.43;3.72;;;20.90;99.90;;;;;;4957441;29;20031;-92
2022/07/11 03:57:07;;;;;;;22.10;4.80;;;21.00;99.90;;;;;;4957915;29;20031;-94
2022/07/11 03:59:34;;;;;;;14.07;4.30;;;21.00;99.90;;;;;;4957251;29;20038;-94
2022/07/11 04:02:00;;;;;;;12.43;3.75;;;21.10;99.90;;;;;;4955514;28;20027;-94
2022/07/11 04:04:27;;;;;;;9.38;3.92;;;21.20;99.90;;;;;;4956445;29;20027;-95
2022/07/11 04:06:53;;;;;;;8.88;3.40;;;21.30;99.90;;;;;;4956657;29;20031;-93
2022/07/11 04:09:20;;;;;;;13.95;4.45;;;21.40;99.90;;;;;;4956427;29;20027;-93
2022/07/11 04:11:47;;;;;;;10.50;3.53;;;21.50;99.90;;;;;;4956445;29;20126;-92
2022/07/11 04:14:13;;;;;;;8.35;3.33;;;21.60;99.90;;;;;;4956611;29;20023;-95
2022/07/11 04:16:40;;;;;;;14.77;4.35;;;21.70;99.90;;;;;;4955866;29;20097;-93
2022/07/11 04:19:07;;;;;;;9.23;3.60;;;21.80;99.90;;;;;;4955936;29;20054;-93
2022/07/11 04:21:33;;;;;;;15.02;3.83;;;21.80;99.90;;;;;;4957329;29;20118;-93
2022/07/11 04:24:01;;;;;;;12.15;3.88;;;21.90;99.90;;;;;;4956022;29;20023;-94
2022/07/11 04:26:27;;;;;;;8.75;3.42;;;22.10;99.90;;;;;;4956258;29;20393;-93
2022/07/11 04:28:57;;;;;;;13.48;3.80;;;22.10;99.90;;;;;;4955598;29;20472;-95
2022/07/11 04:31:23;;;;;;;11.25;3.75;;;22.20;99.90;;;;;;4956422;29;20043;-93
2022/07/11 04:33:50;;;;;;;13.20;3.53;;;22.30;99.90;;;;;;4957645;29;20023;-93
2022/07/11 04:36:17;;;;;;;13.95;3.72;;;22.40;99.90;;;;;;4955596;29;20066;-93
2022/07/11 04:38:44;;;;;;;15.50;4.05;;;22.50;99.90;;;;;;4955362;29;20035;-94
2022/07/11 04:41:11;;;;;;;14.93;3.42;;;22.80;99.90;;;;;;4956333;29;20039;-93
2022/07/11 04:43:38;;;;;;;13.45;3.67;;;23.50;99.90;;;;;;4955453;28;20134;-94
2022/07/11 04:46:05;;;;;;;10.18;3.30;;;24.80;99.90;;;;;;4955535;29;20031;-94
2022/07/11 04:48:32;;;;;;;13.10;3.35;;;26.40;99.90;;;;;;4955658;29;20370;-93
2022/07/11 04:50:59;;;;;;;10.13;3.00;;;27.50;99.90;;;;;;4956621;29;20035;-94
2022/07/11 04:53:25;;;;;;;12.23;3.15;;;28.00;99.90;;;;;;4956239;29;20061;-93
2022/07/11 04:55:52;;;;;;;8.15;3.13;;;29.10;99.90;;;;;;4955668;29;20476;-93
2022/07/11 04:58:18;;;;;;;11.07;2.97;;;29.80;99.90;;;;;;4955877;29;20019;-94
2022/07/11 05:00:45;;;;;;;9.50;3.72;;;29.90;99.90;;;;;;4955356;29;20079;-94
2022/07/11 05:03:11;;;;;;;9.93;3.53;;;29.60;99.90;;;;;;4955725;29;20488;-94
2022/07/11 05:05:38;;;;;;;12.25;4.18;;;29.40;99.90;;;;;;4957837;29;20030;-94
2022/07/11 05:08:11;;;;;;;7.13;2.80;;;29.60;99.90;;;;;;4955407;29;20031;-95
2022/07/11 05:10:38;;;;;;;10.30;4.32;;;29.80;99.90;;;;;;4956580;29;20028;-92
2022/07/11 05:13:05;;;;;;;13.32;3.10;;;30.60;99.90;;;;;;4955217;29;20046;-95
2022/07/11 05:15:32;;;;;;;9.77;3.47;;;31.10;99.90;;;;;;4958775;28;20058;-93
2022/07/11 05:17:58;;;;;;;10.80;3.40;;;31.70;99.90;;;;;;4960071;29;20472;-94
2022/07/11 05:20:25;;;;;;;10.10;4.05;;;31.40;99.90;;;;;;4959672;29;20031;-93
2022/07/11 05:22:52;;;;;;;5.90;3.95;;;31.20;99.90;;;;;;4958682;29;20031;-94
2022/07/11 05:25:37;;;;;;;10.00;3.72;;;30.90;99.90;;;;;;4959819;29;20463;-94
2022/07/11 05:28:04;;;;;;;6.80;4.43;;;30.70;99.90;;;;;;4959054;29;20543;-94
2022/07/11 05:30:30;;;;;;;7.47;3.53;;;30.30;99.90;;;;;;4958779;29;20047;-94
2022/07/11 05:32:57;;;;;;;12.15;4.15;;;29.80;99.90;;;;;;4960307;29;20071;-94
2022/07/11 05:35:25;;;;;;;9.98;3.65;;;29.90;99.90;;;;;;4961215;29;20385;-95
2022/07/11 05:37:52;;;;;;;8.70;3.75;;;29.40;99.90;;;;;;4958816;29;20114;-94
2022/07/11 05:40:19;;;;;;;7.75;3.72;;;29.60;99.90;;;;;;4960942;29;20514;-93
2022/07/11 05:42:46;;;;;;;9.93;3.40;;;30.30;99.90;;;;;;4959977;28;20055;-94
2022/07/11 05:45:12;;;;;;;5.88;3.20;;;30.20;99.90;;;;;;4959606;29;20031;-91
2022/07/11 05:47:39;;;;;;;15.45;5.65;;;30.30;99.90;;;;;;4959085;29;20035;-92
2022/07/11 05:50:06;;;;;;;6.97;3.55;;;31.20;99.90;;;;;;4958244;29;20118;-92
2022/07/11 05:52:33;;;;;;;5.88;3.50;;;31.40;99.90;;;;;;4958741;29;20043;-95
2022/07/11 06:31:17;;;;;;;7.05;5.10;;;31.90;99.90;;;;;;5048437;23;20122;-94
2022/07/11 06:33:54;;;;;;;8.98;4.88;;;32.10;99.90;;;;;;4973549;28;20034;-93
2022/07/11 06:36:24;;;;;;;6.50;5.90;;;31.60;99.90;;;;;;4969676;28;20030;-92
2022/07/11 06:39:09;;;;;;;12.90;6.60;;;32.10;99.90;;;;;;4948645;28;20119;-93
2022/07/11 06:42:33;;;;;;;9.43;7.80;;;32.30;99.90;;;;;;4955537;28;20065;-93
2022/07/11 07:00:27;;;;;;;;;;;;;;;;;;;;;
2022/07/11 07:39:20;;;;;;;9.73;8.80;;;32.30;99.90;;;;;;4936221;29;20038;-94
2022/07/11 07:41:47;;;;;;;11.35;8.50;;;32.50;99.90;;;;;;4920072;29;20143;-88
2022/07/11 07:44:13;;;;;;;9.70;9.00;;;32.30;99.90;;;;;;4903533;29;20067;-87
2022/07/11 07:46:39;;;;;;;10.52;9.73;;;32.30;99.90;;;;;;4900214;29;20040;-87
2022/07/11 07:49:07;;;;;;;10.30;9.50;;;32.30;99.90;;;;;;4903095;29;20386;-88
2022/07/11 07:51:33;;;;;;;9.90;9.20;;;32.30;99.90;;;;;;4903323;29;20039;-88
2022/07/11 07:53:59;;;;;;;9.48;8.82;;;32.10;99.90;;;;;;4899105;29;20030;-87
2022/07/11 07:56:26;;;;;;;9.90;9.20;;;31.90;99.90;;;;;;4898880;29;20035;-87
2022/07/11 07:58:52;;;;;;;10.18;9.35;;;32.40;99.90;;;;;;4902823;29;20507;-87
2022/07/11 08:01:38;;;;;;;9.95;9.23;;;32.10;99.90;;;;;;4902985;29;20028;-86
2022/07/11 08:04:06;;;;;;;9.40;8.90;;;32.60;99.90;;;;;;4893994;29;20032;-89
2022/07/11 08:06:38;;;;;;;9.60;9.00;;;32.10;99.90;;;;;;4902327;29;20031;-87
2022/07/11 08:09:06;;;;;;;9.52;8.93;;;32.00;99.90;;;;;;4893452;29;20546;-88
2022/07/11 08:11:33;;;;;;;9.35;8.95;;;31.80;99.90;;;;;;4901897;29;20031;-88
2022/07/11 08:14:01;;;;;;;9.80;9.00;;;31.70;99.90;;;;;;4902353;29;20095;-88
2022/07/11 08:16:34;;;;;;;10.02;9.40;;;31.70;99.90;;;;;;4900285;29;20028;-89
2022/07/11 08:19:06;;;;;;;9.93;9.05;;;31.80;99.90;;;;;;4900341;29;20442;-90
2022/07/11 08:21:34;;;;;;;9.98;9.20;;;32.10;99.90;;;;;;4901928;29;20123;-89
2022/07/11 08:24:04;;;;;;;9.25;8.57;;;31.60;99.90;;;;;;4899747;29;20032;-89
2022/07/11 08:26:32;;;;;;;10.05;9.35;;;31.70;99.90;;;;;;4902053;29;20114;-88
2022/07/11 08:29:00;;;;;;;10.57;9.90;;;31.70;99.90;;;;;;4901961;29;20039;-89
2022/07/11 08:31:27;;;;;;;9.98;9.27;;;32.00;99.90;;;;;;4899747;29;20031;-91
2022/07/11 08:33:53;;;;;;;10.10;9.45;;;32.40;99.90;;;;;;4895034;29;20072;-90
2022/07/11 08:36:19;;;;;;;10.20;9.40;;;32.80;99.90;;;;;;4901799;29;20114;-89
2022/07/11 08:38:48;;;;;;;10.32;9.73;;;33.10;99.90;;;;;;4898693;29;20482;-89
2022/07/11 08:41:18;;;;;;;10.45;9.55;;;33.10;99.90;;;;;;4899484;29;20071;-89
2022/07/11 08:43:46;;;;;;;9.68;8.98;;;33.10;99.90;;;;;;4890328;29;20031;-89
2022/07/11 08:46:15;;;;;;;9.80;9.20;;;32.70;99.90;;;;;;4890379;29;20394;-89
2022/07/11 08:48:42;;;;;;;10.38;9.73;;;32.00;99.90;;;;;;4894576;29;20051;-90
2022/07/11 08:51:09;;;;;;;10.80;9.68;;;32.40;99.90;;;;;;4907932;29;20047;-90
2022/07/11 08:53:41;;;;;;;14.00;9.65;;;32.30;99.90;;;;;;4896718;29;20039;-89
2022/07/11 08:56:10;;;;;;;9.85;9.35;;;32.20;99.90;;;;;;4890342;29;20042;-89
2022/07/11 08:58:37;;;;;;;10.75;9.93;;;32.40;99.90;;;;;;4897067;29;20024;-89
2022/07/11 09:01:05;;;;;;;10.43;9.73;;;32.20;99.90;;;;;;4898735;29;20027;-90
2022/07/11 09:03:33;;;;;;;9.52;9.02;;;32.30;99.90;;;;;;4897396;29;20024;-90
2022/07/11 09:06:00;;;;;;;10.05;9.35;;;32.30;99.90;;;;;;4889917;29;20051;-90
2022/07/11 09:08:28;;;;;;;10.63;9.82;;;32.10;99.90;;;;;;4893033;29;20024;-90
2022/07/11 09:10:54;;;;;;;10.70;9.95;;;31.40;99.90;;;;;;4899798;29;20370;-89
2022/07/11 09:13:20;;;;;;;10.23;9.63;;;31.30;99.90;;;;;;4890256;29;20035;-85
2022/07/11 09:15:50;;;;;;;10.30;9.65;;;31.30;99.90;;;;;;4909944;29;20024;-85
2022/07/11 09:18:30;;;;;;;10.50;9.70;;;31.50;99.90;;;;;;4906908;29;20028;-85
2022/07/11 09:26:52;;;;;;;15.88;9.52;;;32.00;99.90;;;;;;4900172;29;20455;-85
2022/07/11 10:11:58;;;;;;;9.88;9.40;;;29.90;99.90;;;;;;5372010;23;20051;-93
2022/07/11 10:14:25;;;;;;;9.32;8.88;;;29.60;99.90;;;;;;4926824;29;20058;-93
2022/07/11 10:17:26;;;;;;;9.65;9.25;;;29.70;99.90;;;;;;4923032;29;20030;-92
2022/07/11 10:24:02;;;;;;;9.35;8.90;;;29.80;99.90;;;;;;4922525;29;20032;-92
2022/07/11 10:27:33;;;;;;;9.50;8.98;;;30.00;99.90;;;;;;4907098;29;20357;-92
2022/07/11 10:30:01;;;;;;;9.18;8.68;;;29.60;99.90;;;;;;4826708;29;20046;-92
2022/07/11 10:32:30;;;;;;;9.68;9.18;;;29.40;99.90;;;;;;4847948;29;20038;-93
2022/07/11 10:35:12;;;;;;;10.35;9.63;;;29.40;99.90;;;;;;4821909;29;20034;-94
2022/07/11 10:37:51;;;;;;;10.63;9.63;;;29.40;99.90;;;;;;4838465;29;20042;-93
2022/07/11 10:40:50;;;;;;;10.70;9.90;;;29.70;99.90;;;;;;4963325;23;20046;-93
2022/07/11 10:43:22;;;;;;;10.27;9.70;;;29.50;99.90;;;;;;4990812;28;20042;-92
2022/07/11 10:45:59;;;;;;;9.73;9.25;;;29.20;99.90;;;;;;4972251;28;20042;-93
2022/07/11 10:48:29;;;;;;;9.95;9.18;;;29.20;99.90;;;;;;4973185;28;20030;-93
2022/07/11 10:51:14;;;;;;;10.15;9.40;;;29.50;99.90;;;;;;4971990;28;20117;-95
2022/07/11 10:53:48;;;;;;;9.82;9.20;;;28.90;99.90;;;;;;4968493;28;20054;-93
2022/07/11 10:56:36;;;;;;;10.35;9.60;;;28.90;99.90;;;;;;4956492;28;20158;-92
2022/07/11 10:59:15;;;;;;;9.55;9.05;;;29.00;99.90;;;;;;4961413;28;20042;-91
2022/07/11 11:02:12;;;;;;;9.65;9.20;;;28.90;99.90;;;;;;4965444;28;20041;-91
2022/07/11 11:05:01;;;;;;;10.00;9.20;;;29.00;99.90;;;;;;4964747;28;20078;-92
2022/07/11 11:07:31;;;;;;;10.27;9.43;;;28.80;99.90;;;;;;4947265;28;20035;-94
2022/07/11 11:10:04;;;;;;;9.95;9.45;;;29.10;99.90;;;;;;4946738;28;20058;-92
2022/07/11 11:13:09;;;;;;;9.82;9.20;;;29.10;99.90;;;;;;4966835;28;20467;-93
2022/07/11 11:15:55;;;;;;;9.95;9.40;;;29.00;99.90;;;;;;4947213;28;20058;-93
2022/07/11 11:18:24;;;;;;;10.38;9.52;;;29.20;99.90;;;;;;4946973;28;20606;-90
2022/07/11 11:21:00;;;;;;;10.07;9.55;;;29.10;99.90;;;;;;4947668;28;20026;-93
2022/07/11 11:23:36;;;;;;;10.02;9.40;;;29.20;99.90;;;;;;4959618;28;20130;-92
2022/07/11 11:26:15;;;;;;;10.25;9.73;;;28.80;99.90;;;;;;4943340;28;20031;-93
2022/07/11 11:29:05;;;;;;;10.70;10.00;;;28.70;99.90;;;;;;4943409;28;20026;-93
2022/07/11 11:31:32;;;;;;;10.13;9.60;;;28.80;99.90;;;;;;4947759;28;20101;-93
2022/07/11 11:34:02;;;;;;;10.02;9.18;;;29.00;99.90;;;;;;4944013;28;20038;-93
2022/07/11 11:36:28;;;;;;;9.63;9.13;;;29.10;99.90;;;;;;4946645;28;20019;-92
2022/07/11 11:38:58;;;;;;;9.60;9.10;;;29.00;99.90;;;;;;4945924;28;20101;-92
2022/07/11 11:41:29;;;;;;;9.57;9.07;;;28.70;99.90;;;;;;4945591;28;20142;-92
2022/07/11 11:43:58;;;;;;;10.07;9.50;;;28.70;99.90;;;;;;4945437;28;20027;-93
2022/07/11 11:46:29;;;;;;;10.40;9.70;;;29.20;99.90;;;;;;4949449;28;20034;-92
2022/07/11 11:48:57;;;;;;;9.63;9.02;;;29.20;99.90;;;;;;4947533;28;20550;-92
2022/07/11 11:51:29;;;;;;;9.90;9.27;;;29.10;99.90;;;;;;4946239;28;20065;-92
2022/07/11 11:54:00;;;;;;;10.20;9.60;;;29.20;99.90;;;;;;4944203;28;20035;-92
2022/07/11 11:56:34;;;;;;;9.75;9.18;;;29.40;99.90;;;;;;4976693;28;20035;-93
2022/07/11 11:59:12;;;;;;;9.90;9.25;;;29.20;99.90;;;;;;4944659;28;20038;-93
2022/07/11 12:01:41;;;;;;;9.70;9.10;;;29.30;99.90;;;;;;4943817;28;20038;-93
2022/07/11 12:04:10;;;;;;;9.40;9.00;;;29.10;99.90;;;;;;4943367;28;20023;-93
2022/07/11 12:06:40;;;;;;;10.23;9.73;;;29.00;99.90;;;;;;4942880;28;20039;-92
2022/07/11 12:09:09;;;;;;;10.10;9.60;;;29.30;99.90;;;;;;4943258;28;20078;-93
2022/07/11 12:11:46;;;;;;;9.75;9.07;;;29.40;99.90;;;;;;4943765;28;20058;-93
2022/07/11 12:14:14;;;;;;;10.07;9.40;;;29.10;99.90;;;;;;4953319;28;20030;-93
2022/07/11 12:16:43;;;;;;;9.90;9.20;;;28.90;99.90;;;;;;4954571;28;20030;-93
2022/07/11 12:19:24;;;;;;;9.82;9.13;;;28.90;99.90;;;;;;4950542;28;20026;-93
2022/07/11 12:21:55;;;;;;;9.50;8.90;;;29.00;99.90;;;;;;4947542;28;20034;-93
2022/07/11 12:24:26;;;;;;;9.25;8.75;;;29.20;99.90;;;;;;4955569;28;20098;-92
2022/07/11 12:26:53;;;;;;;10.07;9.20;;;29.10;99.90;;;;;;4955860;28;20042;-93
2022/07/11 12:29:27;;;;;;;9.60;9.10;;;29.00;99.90;;;;;;4953263;28;20095;-93
2022/07/11 12:31:59;;;;;;;9.85;9.25;;;28.90;99.90;;;;;;4949789;28;20035;-93
2022/07/11 12:34:34;;;;;;;10.00;9.32;;;28.90;99.90;;;;;;4953997;28;20444;-92
2022/07/11 12:37:12;;;;;;;9.63;9.10;;;28.80;99.90;;;;;;4957696;28;20042;-93
2022/07/11 12:39:51;;;;;;;9.65;9.13;;;28.90;99.90;;;;;;4922620;28;20497;-94
2022/07/11 12:42:36;;;;;;;9.77;8.90;;;28.90;99.90;;;;;;4948991;28;20082;-93
2022/07/11 12:45:08;;;;;;;9.32;8.90;;;28.90;99.90;;;;;;4944234;28;20061;-93
2022/07/11 12:47:42;;;;;;;10.20;9.40;;;29.00;99.90;;;;;;4942903;28;20119;-93
2022/07/11 12:50:25;;;;;;;9.80;9.20;;;29.10;99.90;;;;;;4943601;28;20125;-92
2022/07/11 12:52:56;;;;;;;9.07;8.68;;;28.70;99.90;;;;;;4942907;28;20125;-91
2022/07/11 12:55:33;;;;;;;10.32;9.55;;;28.70;99.90;;;;;;4942473;28;20023;-92
2022/07/11 12:58:10;;;;;;;9.70;9.05;;;28.60;99.90;;;;;;4942533;28;20118;-92
2022/07/11 13:00:39;;;;;;;9.35;8.95;;;28.70;99.90;;;;;;4942396;28;20033;-92
2022/07/11 13:03:07;;;;;;;9.48;8.88;;;28.50;99.90;;;;;;4943720;28;20031;-92
2022/07/11 13:05:50;;;;;;;9.73;9.20;;;28.80;99.90;;;;;;4942201;28;20046;-90
2022/07/11 13:08:46;;;;;;;9.30;8.80;;;28.70;99.90;;;;;;4942229;28;20035;-93
2022/07/11 13:11:15;;;;;;;10.40;9.23;;;28.70;99.90;;;;;;4942887;28;20111;-92
2022/07/11 13:13:42;;;;;;;9.15;8.55;;;28.80;99.90;;;;;;5072062;23;20062;-92
2022/07/11 13:16:10;;;;;;;9.43;8.90;;;28.70;99.90;;;;;;4941988;28;20480;-92
2022/07/11 13:18:37;;;;;;;9.13;8.45;;;28.50;99.90;;;;;;4942005;28;20039;-92
2022/07/11 13:21:09;;;;;;;8.95;8.38;;;28.20;99.90;;;;;;4942401;28;20054;-94
2022/07/11 13:23:36;;;;;;;8.77;8.27;;;28.00;99.90;;;;;;4942455;28;20402;-89
2022/07/11 13:26:05;;;;;;;8.73;8.32;;;28.00;99.90;;;;;;4943188;28;20030;-92
2022/07/11 13:28:34;;;;;;;8.38;7.95;;;28.10;99.90;;;;;;4943981;28;20027;-93
2022/07/11 13:31:04;;;;;;;9.00;8.60;;;28.20;99.90;;;;;;4942371;28;20026;-91
2022/07/11 13:33:32;;;;;;;9.00;8.38;;;28.50;99.90;;;;;;4944307;28;20611;-93
2022/07/11 13:35:59;;;;;;;8.27;7.82;;;28.50;99.90;;;;;;4945866;28;20026;-92
2022/07/11 13:38:26;;;;;;;8.93;8.52;;;28.30;99.90;;;;;;4945479;28;20480;-92
2022/07/11 13:40:52;;;;;;;8.93;8.52;;;28.40;99.90;;;;;;4945402;28;20030;-91
2022/07/11 13:43:19;;;;;;;8.90;8.50;;;28.50;99.90;;;;;;4945670;28;20031;-91
2022/07/11 13:45:47;;;;;;;8.75;8.23;;;28.60;99.90;;;;;;4945646;28;20503;-92
2022/07/11 13:48:13;;;;;;;9.35;8.50;;;28.80;99.90;;;;;;4961530;28;20058;-91
2022/07/11 13:50:40;;;;;;;8.90;8.40;;;28.80;99.90;;;;;;4945386;28;20031;-90
2022/07/11 13:53:06;;;;;;;8.90;8.45;;;28.70;99.90;;;;;;4945287;28;20484;-92
2022/07/11 13:55:33;;;;;;;8.88;8.48;;;28.60;99.90;;;;;;4945299;28;20023;-90
2022/07/11 13:58:00;;;;;;;8.27;7.97;;;28.40;99.90;;;;;;4945362;28;20185;-93
2022/07/11 14:00:29;;;;;;;8.02;7.72;;;28.40;99.90;;;;;;4947610;28;20023;-91
2022/07/11 14:02:56;;;;;;;8.65;8.25;;;28.40;99.90;;;;;;4947687;28;20058;-91
2022/07/11 14:05:23;;;;;;;9.35;8.75;;;28.40;99.90;;;;;;4947062;28;20023;-93
2022/07/11 14:07:50;;;;;;;9.32;8.70;;;28.30;99.90;;;;;;4945600;28;20038;-91
2022/07/11 14:10:17;;;;;;;8.60;8.20;;;28.10;99.90;;;;;;4946288;28;20019;-91
2022/07/11 14:12:43;;;;;;;8.85;8.25;;;28.10;99.90;;;;;;4950682;28;20077;-91
2022/07/11 14:15:10;;;;;;;8.35;7.75;;;27.90;99.90;;;;;;4947394;28;20440;-92
2022/07/11 14:17:37;;;;;;;8.75;8.25;;;27.90;99.90;;;;;;4945401;28;20082;-93
2022/07/11 14:20:05;;;;;;;8.68;8.18;;;28.00;99.90;;;;;;4945237;28;20065;-93
2022/07/11 14:22:31;;;;;;;8.48;8.07;;;28.00;99.90;;;;;;4946777;28;20042;-93
2022/07/11 14:25:00;;;;;;;8.20;7.50;;;28.10;99.90;;;;;;4944210;28;20188;-92
2022/07/11 14:27:27;;;;;;;8.00;7.60;;;28.00;99.90;;;;;;4944766;28;20031;-93
2022/07/11 14:29:54;;;;;;;7.60;7.20;;;27.80;99.90;;;;;;4960805;28;20030;-92
2022/07/11 14:32:21;;;;;;;7.90;7.50;;;27.80;99.90;;;;;;4960407;28;20045;-92
2022/07/11 14:34:47;;;;;;;7.70;7.30;;;28.10;99.90;;;;;;4960317;28;20038;-93
2022/07/11 14:37:18;;;;;;;7.72;7.20;;;28.10;99.90;;;;;;4960225;28;20038;-92
2022/07/11 14:39:46;;;;;;;7.47;6.93;;;28.10;99.90;;;;;;4960404;28;20150;-91
2022/07/11 14:42:13;;;;;;;6.72;6.22;;;28.10;99.90;;;;;;4944442;28;20096;-90
2022/07/11 14:44:39;;;;;;;8.02;7.63;;;27.80;99.90;;;;;;4960389;28;20078;-91
2022/07/11 14:47:06;;;;;;;7.40;7.10;;;27.80;99.90;;;;;;4959602;28;20027;-92
2022/07/11 14:49:32;;;;;;;8.32;7.93;;;27.90;99.90;;;;;;4944414;28;20034;-93
2022/07/11 14:51:58;;;;;;;7.78;7.25;;;28.10;99.90;;;;;;4944298;28;20396;-92
2022/07/11 14:54:25;;;;;;;7.53;7.00;;;28.20;99.90;;;;;;4960385;28;20058;-90
2022/07/11 14:56:51;;;;;;;7.10;6.45;;;28.10;99.90;;;;;;4960052;28;20118;-92
2022/07/11 14:59:18;;;;;;;6.80;6.40;;;28.00;99.90;;;;;;4944329;28;20377;-93
2022/07/11 15:01:44;;;;;;;6.45;6.03;;;28.10;99.90;;;;;;4960361;28;20027;-93
2022/07/11 15:04:10;;;;;;;6.20;5.90;;;28.10;99.90;;;;;;4960407;28;20034;-92
2022/07/11 15:12:24;;;;;;;5.75;5.15;;;27.60;99.90;;;;;;4934212;28;19918;-92
2022/07/11 15:14:52;;;;;;;6.50;6.20;;;27.50;99.90;;;;;;4943787;28;20129;-94
2022/07/11 15:17:18;;;;;;;7.60;7.13;;;27.70;99.90;;;;;;4943688;28;20030;-92
2022/07/11 15:19:45;;;;;;;5.93;5.50;;;27.70;99.90;;;;;;4943723;28;20126;-92
2022/07/11 15:22:11;;;;;;;5.90;5.60;;;27.60;99.90;;;;;;4943752;28;20030;-91
2022/07/11 15:24:38;;;;;;;5.63;5.22;;;27.60;99.90;;;;;;4943885;28;20035;-91